Time;durP1;ratioP1;P1;durP2;ratioP2;P2;SDS_P1;SDS_P2;PMS_P1;PMS_P2;Temp;Humidity;BMP_temperature;BMP_pressure;BME280_temperature;BME280_humidity;BME280_pressure;Samples;Min_cycle;Max_cycle;Signal;HPM_P1;HPM_P2
2021/04/20 00:02:22;;;;;;;24.77;14.65;;;;;;;-143.98;100.00;68091.63;5042016;28;20063;-79
2021/04/20 00:04:52;;;;;;;37.72;16.17;;;;;;;-143.98;100.00;68091.63;5038715;28;20100;-80
2021/04/20 00:07:22;;;;;;;28.80;15.90;;;;;;;-143.98;100.00;68091.63;5021624;28;20100;-80
2021/04/20 00:09:48;;;;;;;27.33;16.33;;;;;;;-143.98;100.00;68091.63;5038403;28;20073;-80
2021/04/20 00:12:14;;;;;;;36.17;18.63;;;;;;;-143.98;100.00;68091.63;5037351;28;20140;-79
2021/04/20 00:14:40;;;;;;;33.30;16.20;;;;;;;-143.98;100.00;68091.63;5037460;28;20057;-79
2021/04/20 00:17:07;;;;;;;28.20;15.45;;;;;;;-143.98;100.00;68091.63;5037279;28;20060;-81
2021/04/20 00:19:33;;;;;;;31.67;16.50;;;;;;;-143.98;100.00;68091.63;5020919;28;20057;-80
2021/04/20 00:22:00;;;;;;;33.42;16.58;;;;;;;-143.98;100.00;68091.63;5021663;28;20368;-80
2021/04/20 00:24:26;;;;;;;35.47;16.75;;;;;;;-143.98;100.00;68091.63;5035759;28;20053;-81
2021/04/20 00:26:56;;;;;;;30.00;14.05;;;;;;;-143.98;100.00;68091.63;5055603;28;20049;-80
2021/04/20 00:29:25;;;;;;;29.60;14.60;;;;;;;-143.98;100.00;68091.63;5036873;28;20300;-81
2021/04/20 00:31:54;;;;;;;26.10;14.30;;;;;;;-143.98;100.00;68091.63;5036739;28;20048;-81
2021/04/20 00:34:20;;;;;;;21.65;12.85;;;;;;;-143.98;100.00;68091.63;5053928;28;20226;-81
2021/04/20 00:36:49;;;;;;;33.75;14.23;;;;;;;-143.98;100.00;68091.63;5056240;28;20056;-81
2021/04/20 00:39:18;;;;;;;23.58;14.13;;;;;;;-143.98;100.00;68091.63;5054283;28;20072;-80
2021/04/20 00:41:44;;;;;;;25.10;14.73;;;;;;;-143.98;100.00;68091.63;5054644;28;20274;-81
2021/04/20 00:44:10;;;;;;;32.03;13.82;;;;;;;-143.98;100.00;68091.63;5039069;28;20114;-80
2021/04/20 00:46:36;;;;;;;24.75;13.98;;;;;;;-143.98;100.00;68091.63;5056294;28;20380;-80
2021/04/20 00:49:03;;;;;;;27.80;13.95;;;;;;;-143.98;100.00;68091.63;5038271;28;20421;-80
2021/04/20 00:51:29;;;;;;;30.42;14.68;;;;;;;-143.98;100.00;68091.63;5040258;28;20136;-80
2021/04/20 00:53:56;;;;;;;26.58;14.02;;;;;;;-143.98;100.00;68091.63;5041407;28;20053;-80
2021/04/20 00:56:22;;;;;;;24.63;13.25;;;;;;;-143.98;100.00;68091.63;5041965;28;20368;-80
2021/04/20 00:58:48;;;;;;;23.77;13.93;;;;;;;-143.98;100.00;68091.63;5039872;28;20151;-80
2021/04/20 01:01:18;;;;;;;25.40;12.30;;;;;;;-143.98;100.00;68091.63;5058811;28;20052;-80
2021/04/20 01:03:50;;;;;;;23.85;12.93;;;;;;;-143.98;100.00;68091.63;5058366;28;20057;-80
2021/04/20 01:06:16;;;;;;;23.10;13.07;;;;;;;-143.98;100.00;68091.63;5042424;28;20068;-81
2021/04/20 01:08:48;;;;;;;22.85;13.30;;;;;;;-143.98;100.00;68091.63;5042386;28;20067;-81
2021/04/20 01:11:14;;;;;;;22.75;13.30;;;;;;;-143.98;100.00;68091.63;5058628;28;20053;-80
2021/04/20 01:13:40;;;;;;;24.25;12.27;;;;;;;-143.98;100.00;68091.63;5040691;28;20425;-81
2021/04/20 01:16:06;;;;;;;26.40;12.23;;;;;;;-143.98;100.00;68091.63;5058597;28;20060;-81
2021/04/20 01:18:37;;;;;;;20.95;12.63;;;;;;;-143.98;100.00;68091.63;5058528;28;20363;-81
2021/04/20 01:21:14;;;;;;;22.70;11.95;;;;;;;-143.98;100.00;68091.63;5057486;28;20069;-80
2021/04/20 01:23:57;;;;;;;22.80;11.32;;;;;;;-143.98;100.00;68091.63;5045617;28;20099;-81
2021/04/20 01:26:30;;;;;;;19.08;11.70;;;;;;;-143.98;100.00;68091.63;5078397;28;20068;-81
2021/04/20 01:28:57;;;;;;;20.10;10.57;;;;;;;-143.98;100.00;68091.63;5049878;28;20056;-80
2021/04/20 01:31:32;;;;;;;22.52;10.82;;;;;;;-143.98;100.00;68091.63;5071174;28;20261;-80
2021/04/20 01:33:58;;;;;;;18.95;9.50;;;;;;;-143.98;100.00;68091.63;5057594;28;20052;-81
2021/04/20 01:36:25;;;;;;;17.27;9.18;;;;;;;-143.98;100.00;68091.63;5078244;28;20053;-81
2021/04/20 01:38:53;;;;;;;16.27;10.38;;;;;;;-143.98;100.00;68091.63;5069814;28;20272;-81
2021/04/20 01:41:21;;;;;;;17.88;7.78;;;;;;;-143.98;100.00;68091.63;5093858;28;20079;-81
2021/04/20 01:43:48;;;;;;;16.55;8.43;;;;;;;-143.98;100.00;68091.63;5073582;28;20124;-81
2021/04/20 01:46:16;;;;;;;17.42;7.80;;;;;;;-143.98;100.00;68091.63;5061969;28;20101;-81
2021/04/20 01:48:44;;;;;;;21.08;8.23;;;;;;;-143.98;100.00;68091.63;5061827;28;20063;-81
2021/04/20 01:51:10;;;;;;;17.60;7.28;;;;;;;-143.98;100.00;68091.63;5061055;28;20099;-79
2021/04/20 01:53:37;;;;;;;16.17;7.82;;;;;;;-143.98;100.00;68091.63;5076804;28;20072;-79
2021/04/20 01:56:08;;;;;;;12.65;7.65;;;;;;;-143.98;100.00;68091.63;5075701;28;20098;-79
2021/04/20 01:58:36;;;;;;;13.18;7.32;;;;;;;-143.98;100.00;68091.63;5076385;28;20528;-80
2021/04/20 02:01:28;;;;;;;16.17;6.90;;;;;;;-143.98;100.00;68091.63;5076627;28;20052;-81
2021/04/20 02:03:55;;;;;;;15.07;7.60;;;;;;;-143.98;100.00;68091.63;5076279;28;20118;-80
2021/04/20 02:06:24;;;;;;;15.27;6.35;;;;;;;-143.98;100.00;68091.63;5065645;28;20117;-79
2021/04/20 02:08:51;;;;;;;10.57;6.28;;;;;;;-143.98;100.00;68091.63;5072119;28;20052;-82
2021/04/20 02:11:19;;;;;;;14.38;6.80;;;;;;;-143.98;100.00;68091.63;5087363;28;20060;-80
2021/04/20 02:13:46;;;;;;;16.08;6.85;;;;;;;-143.98;100.00;68091.63;5052835;28;20053;-80
2021/04/20 02:16:12;;;;;;;12.85;7.03;;;;;;;-143.98;100.00;68091.63;5060605;28;20135;-80
2021/04/20 02:18:41;;;;;;;13.65;7.22;;;;;;;-143.98;100.00;68091.63;5043914;28;20125;-80
2021/04/20 02:21:10;;;;;;;14.35;7.03;;;;;;;-143.98;100.00;68091.63;5061127;28;20386;-80
2021/04/20 02:23:37;;;;;;;13.00;7.22;;;;;;;-143.98;100.00;68091.63;5073127;28;20071;-80
2021/04/20 02:26:11;;;;;;;16.98;7.50;;;;;;;-143.98;100.00;68091.63;5058377;28;20068;-80
2021/04/20 02:28:38;;;;;;;15.15;6.88;;;;;;;-143.98;100.00;68091.63;5055350;28;20333;-80
2021/04/20 02:31:07;;;;;;;14.98;6.53;;;;;;;-143.98;100.00;68091.63;5040160;28;20179;-80
2021/04/20 02:33:34;;;;;;;15.20;6.57;;;;;;;-143.98;100.00;68091.63;5056619;28;20152;-79
2021/04/20 02:36:01;;;;;;;13.65;6.97;;;;;;;-143.98;100.00;68091.63;5052292;28;20096;-79
2021/04/20 02:38:32;;;;;;;13.00;7.28;;;;;;;-143.98;100.00;68091.63;5053185;28;20152;-79
2021/04/20 02:41:05;;;;;;;14.32;6.95;;;;;;;-143.98;100.00;68091.63;5053051;28;20057;-79
2021/04/20 02:43:32;;;;;;;13.60;6.88;;;;;;;-143.98;100.00;68091.63;5036772;28;20080;-80
2021/04/20 02:46:02;;;;;;;12.70;6.47;;;;;;;-143.98;100.00;68091.63;5055040;28;20060;-80
2021/04/20 02:48:32;;;;;;;10.52;6.35;;;;;;;-143.98;100.00;68091.63;5037474;28;20084;-80
2021/04/20 02:50:59;;;;;;;13.98;6.85;;;;;;;-143.98;100.00;68091.63;5054243;28;20568;-80
2021/04/20 02:53:27;;;;;;;11.55;6.38;;;;;;;-143.98;100.00;68091.63;5052205;28;20138;-80
2021/04/20 02:55:55;;;;;;;10.45;6.18;;;;;;;-143.98;100.00;68091.63;5038755;28;20333;-79
2021/04/20 02:58:26;;;;;;;14.10;7.47;;;;;;;-143.98;100.00;68091.63;5052919;28;20044;-79
2021/04/20 03:01:01;;;;;;;13.23;6.90;;;;;;;-143.98;100.00;68091.63;5055343;28;20068;-79
2021/04/20 03:03:29;;;;;;;14.60;6.93;;;;;;;-143.98;100.00;68091.63;5043147;28;20048;-79
2021/04/20 03:06:00;;;;;;;12.27;6.60;;;;;;;-143.98;100.00;68091.63;5048091;28;20057;-78
2021/04/20 03:08:27;;;;;;;9.48;6.15;;;;;;;-143.98;100.00;68091.63;5058215;28;20057;-79
2021/04/20 03:11:02;;;;;;;14.32;6.70;;;;;;;-143.98;100.00;68091.63;5037969;28;20056;-78
2021/04/20 03:13:29;;;;;;;11.52;7.22;;;;;;;-143.98;100.00;68091.63;5052526;28;20057;-80
2021/04/20 03:15:56;;;;;;;11.25;6.93;;;;;;;-143.98;100.00;68091.63;5065219;28;20136;-79
2021/04/20 03:18:25;;;;;;;15.68;7.38;;;;;;;-143.98;100.00;68091.63;5063876;28;20083;-79
2021/04/20 03:20:52;;;;;;;17.48;7.07;;;;;;;-143.98;100.00;68091.63;5054489;28;20131;-79
2021/04/20 03:23:19;;;;;;;9.73;6.05;;;;;;;-143.98;100.00;68091.63;5039569;28;20466;-79
2021/04/20 03:25:45;;;;;;;15.93;7.80;;;;;;;-143.98;100.00;68091.63;5056824;28;20068;-79
2021/04/20 03:28:11;;;;;;;15.23;7.20;;;;;;;-143.98;100.00;68091.63;5073088;28;20432;-79
2021/04/20 03:30:40;;;;;;;15.15;6.40;;;;;;;-143.98;100.00;68091.63;5056047;28;20056;-78
2021/04/20 03:33:13;;;;;;;12.13;7.00;;;;;;;-143.98;100.00;68091.63;5072891;28;20064;-78
2021/04/20 03:35:46;;;;;;;15.68;6.60;;;;;;;-143.98;100.00;68091.63;5058697;28;20214;-78
2021/04/20 03:38:20;;;;;;;13.80;6.43;;;;;;;-143.98;100.00;68091.63;5060207;28;20301;-79
2021/04/20 03:40:51;;;;;;;18.13;7.80;;;;;;;-143.98;100.00;68091.63;5054531;28;20059;-80
2021/04/20 03:43:19;;;;;;;18.23;7.97;;;;;;;-143.98;100.00;68091.63;5038329;28;20314;-80
2021/04/20 03:46:00;;;;;;;16.85;7.40;;;;;;;-143.98;100.00;68091.63;5072645;28;20364;-79
2021/04/20 03:48:34;;;;;;;12.45;7.30;;;;;;;-143.98;100.00;68091.63;5055478;28;20064;-79
2021/04/20 03:51:14;;;;;;;10.27;6.90;;;;;;;-143.98;100.00;68091.63;5058276;28;20067;-80
2021/04/20 03:53:43;;;;;;;15.00;6.60;;;;;;;-143.98;100.00;68091.63;5055703;28;20068;-79
2021/04/20 03:56:14;;;;;;;16.02;6.75;;;;;;;-143.98;100.00;68091.63;5072123;28;20056;-79
2021/04/20 03:58:43;;;;;;;19.20;7.30;;;;;;;-143.98;100.00;68091.63;5056129;28;20482;-79
2021/04/20 04:01:13;;;;;;;12.57;6.53;;;;;;;-143.98;100.00;68091.63;5073989;28;20056;-79
2021/04/20 04:03:46;;;;;;;17.73;8.63;;;;;;;-143.98;100.00;68091.63;5075642;28;20116;-79
2021/04/20 04:06:18;;;;;;;15.38;7.55;;;;;;;-143.98;100.00;68091.63;5071635;28;20048;-80
2021/04/20 04:08:49;;;;;;;11.40;6.90;;;;;;;-143.98;100.00;68091.63;5056772;28;20049;-79
2021/04/20 04:11:15;;;;;;;17.00;7.20;;;;;;;-143.98;100.00;68091.63;5056487;28;20143;-79
2021/04/20 04:13:44;;;;;;;18.77;7.45;;;;;;;-143.98;100.00;68091.63;5070442;28;20060;-79
2021/04/20 04:16:13;;;;;;;13.13;7.38;;;;;;;-143.98;100.00;68091.63;5071874;28;20056;-78
2021/04/20 04:18:43;;;;;;;14.65;8.13;;;;;;;-143.98;100.00;68091.63;5054106;28;20071;-80
2021/04/20 04:21:11;;;;;;;17.48;7.72;;;;;;;-143.98;100.00;68091.63;5054342;28;20071;-79
2021/04/20 04:23:47;;;;;;;17.42;7.68;;;;;;;-143.98;100.00;68091.63;5067352;28;20052;-79
2021/04/20 04:26:20;;;;;;;18.80;8.35;;;;;;;-143.98;100.00;68091.63;5033561;28;20310;-79
2021/04/20 04:28:51;;;;;;;24.13;8.32;;;;;;;-143.98;100.00;68091.63;5040246;28;20087;-78
2021/04/20 04:31:18;;;;;;;23.52;8.27;;;;;;;-143.98;100.00;68091.63;5033087;28;20057;-79
2021/04/20 04:33:46;;;;;;;14.73;8.00;;;;;;;-143.98;100.00;68091.63;5029989;28;20305;-80
2021/04/20 04:36:14;;;;;;;21.23;8.10;;;;;;;-143.98;100.00;68091.63;5029579;28;20428;-79
2021/04/20 04:38:41;;;;;;;19.25;8.30;;;;;;;-143.98;100.00;68091.63;5029693;28;20065;-80
2021/04/20 04:41:08;;;;;;;18.23;7.85;;;;;;;-143.98;100.00;68091.63;5050145;28;20116;-79
2021/04/20 04:43:35;;;;;;;17.65;8.80;;;;;;;-143.98;100.00;68091.63;5055481;28;20053;-79
2021/04/20 04:46:01;;;;;;;15.35;7.50;;;;;;;-143.98;100.00;68091.63;5037138;28;20060;-78
2021/04/20 04:48:28;;;;;;;24.70;9.90;;;;;;;-143.98;100.00;68091.63;5052382;28;20322;-79
2021/04/20 04:50:59;;;;;;;20.73;7.93;;;;;;;-143.98;100.00;68091.63;5051333;28;20088;-79
2021/04/20 04:53:26;;;;;;;19.20;7.70;;;;;;;-143.98;100.00;68091.63;5049576;28;20053;-79
2021/04/20 04:55:59;;;;;;;24.50;8.20;;;;;;;-143.98;100.00;68091.63;5030440;28;20229;-79
2021/04/20 04:58:30;;;;;;;15.00;7.97;;;;;;;-143.98;100.00;68091.63;5029639;28;20053;-80
2021/04/20 05:01:00;;;;;;;16.73;7.78;;;;;;;-143.98;100.00;68091.63;5045602;28;20107;-79
2021/04/20 05:03:32;;;;;;;16.58;8.07;;;;;;;-143.98;100.00;68091.63;5044572;28;20130;-79
2021/04/20 05:06:09;;;;;;;18.08;8.25;;;;;;;-143.98;100.00;68091.63;5029504;28;20182;-79
2021/04/20 05:08:39;;;;;;;16.50;6.93;;;;;;;-143.98;100.00;68091.63;5044166;28;20075;-80
2021/04/20 05:11:06;;;;;;;12.25;6.57;;;;;;;-143.98;100.00;68091.63;5044294;28;20492;-79
2021/04/20 05:13:34;;;;;;;14.50;7.38;;;;;;;-143.98;100.00;68091.63;5042797;28;20118;-80
2021/04/20 05:16:04;;;;;;;17.40;7.18;;;;;;;-143.98;100.00;68091.63;5047854;28;20057;-80
2021/04/20 05:18:31;;;;;;;15.50;6.97;;;;;;;-143.98;100.00;68091.63;5045996;28;20106;-81
2021/04/20 05:21:00;;;;;;;13.32;6.82;;;;;;;-143.98;100.00;68091.63;5025085;28;20045;-81
2021/04/20 05:23:32;;;;;;;22.00;8.25;;;;;;;-143.98;100.00;68091.63;5034384;28;20068;-81
2021/04/20 05:25:59;;;;;;;16.38;8.00;;;;;;;-143.98;100.00;68091.63;5036526;28;20208;-79
2021/04/20 05:28:25;;;;;;;17.15;7.82;;;;;;;-143.98;100.00;68091.63;5065503;28;20213;-79
2021/04/20 05:30:56;;;;;;;17.23;8.73;;;;;;;-143.98;100.00;68091.63;5049203;28;20060;-79
2021/04/20 05:33:25;;;;;;;15.27;7.53;;;;;;;-143.98;100.00;68091.63;5067970;28;20110;-80
2021/04/20 05:35:51;;;;;;;19.70;8.43;;;;;;;-143.98;100.00;68091.63;5032369;28;20459;-79
2021/04/20 05:38:21;;;;;;;18.77;7.35;;;;;;;-143.98;100.00;68091.63;5038143;28;20056;-79
2021/04/20 05:40:49;;;;;;;17.00;7.05;;;;;;;-143.98;100.00;68091.63;5038599;28;20225;-81
2021/04/20 05:43:19;;;;;;;13.63;7.50;;;;;;;-143.98;100.00;68091.63;5054945;28;20102;-81
2021/04/20 05:45:45;;;;;;;17.83;7.90;;;;;;;-143.98;100.00;68091.63;5037336;28;20254;-80
2021/04/20 05:48:12;;;;;;;18.05;7.95;;;;;;;-143.98;100.00;68091.63;5047648;28;20049;-80
2021/04/20 05:50:38;;;;;;;20.40;7.53;;;;;;;-143.98;100.00;68091.63;5050243;28;20156;-80
2021/04/20 05:53:04;;;;;;;14.63;7.03;;;;;;;-143.98;100.00;68091.63;5048058;28;20053;-79
2021/04/20 05:55:31;;;;;;;14.63;7.75;;;;;;;-143.98;100.00;68091.63;5030142;28;20064;-80
2021/04/20 05:57:59;;;;;;;21.80;8.07;;;;;;;-143.98;100.00;68091.63;5029820;28;20052;-81
2021/04/20 06:00:28;;;;;;;16.35;7.80;;;;;;;-143.98;100.00;68091.63;5066295;28;20251;-80
2021/04/20 06:02:56;;;;;;;17.23;7.25;;;;;;;-143.98;100.00;68091.63;5034531;28;20056;-81
2021/04/20 06:05:25;;;;;;;19.10;8.15;;;;;;;-143.98;100.00;68091.63;5055070;28;20057;-80
2021/04/20 06:08:03;;;;;;;16.73;7.68;;;;;;;-143.98;100.00;68091.63;5077236;28;20108;-80
2021/04/20 06:10:32;;;;;;;16.13;8.23;;;;;;;-143.98;100.00;68091.63;5054043;28;20431;-81
2021/04/20 06:12:59;;;;;;;21.73;8.63;;;;;;;-143.98;100.00;68091.63;5036166;28;20045;-81
2021/04/20 06:15:32;;;;;;;19.77;8.15;;;;;;;-143.98;100.00;68091.63;5033443;28;20215;-79
2021/04/20 06:17:59;;;;;;;17.40;7.32;;;;;;;-143.98;100.00;68091.63;5048935;28;20113;-79
2021/04/20 06:20:26;;;;;;;20.40;8.45;;;;;;;-143.98;100.00;68091.63;5050242;28;20061;-80
2021/04/20 06:22:58;;;;;;;25.42;8.20;;;;;;;-143.98;100.00;68091.63;5057981;28;20226;-80
2021/04/20 06:25:26;;;;;;;20.58;8.88;;;;;;;-143.98;100.00;68091.63;5048574;28;20088;-80
2021/04/20 06:27:58;;;;;;;26.98;8.77;;;;;;;-143.98;100.00;68091.63;5026870;28;20053;-79
2021/04/20 06:30:25;;;;;;;19.08;8.02;;;;;;;-143.98;100.00;68091.63;5010101;28;20081;-80
2021/04/20 06:33:00;;;;;;;20.98;8.30;;;;;;;-143.98;100.00;68091.63;5031795;28;20520;-81
2021/04/20 06:35:27;;;;;;;;;;;;;;;-143.98;100.00;68091.63;5016819;28;20295;-80
2021/04/20 06:37:56;;;;;;;22.02;9.45;;;;;;;-143.98;100.00;68091.63;5020845;28;19949;-81
2021/04/20 06:40:32;;;;;;;21.05;8.70;;;;;;;-143.98;100.00;68091.63;5050143;28;20080;-81
2021/04/20 06:43:04;;;;;;;15.05;7.43;;;;;;;-143.98;100.00;68091.63;5030200;28;20136;-81
2021/04/20 06:45:48;;;;;;;23.55;10.13;;;;;;;-143.98;100.00;68091.63;5049748;28;20143;-81
2021/04/20 06:48:14;;;;;;;18.83;8.68;;;;;;;-143.98;100.00;68091.63;5046361;28;20053;-80
2021/04/20 06:50:43;;;;;;;17.38;8.15;;;;;;;-143.98;100.00;68091.63;5045306;28;20118;-82
2021/04/20 06:53:17;;;;;;;20.80;8.30;;;;;;;-143.98;100.00;68091.63;5032681;28;20059;-81
2021/04/20 06:55:46;;;;;;;20.15;8.15;;;;;;;-143.98;100.00;68091.63;5033869;28;20081;-82
2021/04/20 06:58:20;;;;;;;16.08;8.07;;;;;;;-143.98;100.00;68091.63;5029162;28;20059;-81
2021/04/20 07:00:52;;;;;;;18.48;7.38;;;;;;;-143.98;100.00;68091.63;4994790;28;20414;-81
2021/04/20 07:03:28;;;;;;;20.00;7.72;;;;;;;-143.98;100.00;68091.63;5046230;28;20049;-83
2021/04/20 07:06:19;;;;;;;21.02;7.43;;;;;;;-143.98;100.00;68091.63;5031299;28;20140;-81
2021/04/20 07:08:57;;;;;;;17.88;7.75;;;;;;;-143.98;100.00;68091.63;5033569;28;20075;-82
2021/04/20 07:11:24;;;;;;;;;;;;;;;-143.98;100.00;68091.63;5016171;28;20071;-81
2021/04/20 07:13:55;;;;;;;13.65;7.22;;;;;;;-143.98;100.00;68091.63;5047929;28;19992;-81
2021/04/20 07:16:25;;;;;;;15.70;6.65;;;;;;;-143.98;100.00;68091.63;5039501;28;20155;-82
2021/04/20 07:18:59;;;;;;;18.20;7.25;;;;;;;-143.98;100.00;68091.63;5060875;28;20125;-82
2021/04/20 07:21:57;;;;;;;15.77;6.93;;;;;;;-143.98;100.00;68091.63;5062622;28;20125;-81
2021/04/20 07:24:39;;;;;;;13.20;6.57;;;;;;;-143.98;100.00;68091.63;5038457;28;20076;-82
2021/04/20 07:27:32;;;;;;;15.40;6.90;;;;;;;-143.98;100.00;68091.63;5051258;28;20052;-81
2021/04/20 07:30:29;;;;;;;13.35;6.95;;;;;;;-143.98;100.00;68091.63;5032810;28;20049;-81
2021/04/20 07:33:21;;;;;;;15.38;7.50;;;;;;;-143.98;100.00;68091.63;5047863;28;20048;-82
2021/04/20 07:36:00;;;;;;;16.05;8.20;;;;;;;-143.98;100.00;68091.63;5066583;28;20084;-81
2021/04/20 07:38:33;;;;;;;15.07;8.02;;;;;;;-143.98;100.00;68091.63;5065373;28;20157;-81
2021/04/20 07:41:21;;;;;;;20.80;8.60;;;;;;;-143.98;100.00;68091.63;5051302;28;20076;-81
2021/04/20 07:44:00;;;;;;;22.85;8.07;;;;;;;-143.98;100.00;68091.63;5066734;28;20285;-81
2021/04/20 07:46:30;;;;;;;17.38;6.63;;;;;;;-143.98;100.00;68091.63;5055893;28;20128;-81
2021/04/20 07:49:05;;;;;;;15.55;7.82;;;;;;;-143.98;100.00;68091.63;5080242;28;20344;-81
2021/04/20 07:52:04;;;;;;;19.58;7.72;;;;;;;-143.98;100.00;68091.63;5063547;28;20060;-82
2021/04/20 07:54:50;;;;;;;15.88;8.05;;;;;;;-143.98;100.00;68091.63;5041278;28;20052;-80
2021/04/20 07:57:25;;;;;;;18.33;8.18;;;;;;;-143.98;100.00;68091.63;5045880;28;20095;-82
2021/04/20 08:00:07;;;;;;;13.10;6.85;;;;;;;-143.98;100.00;68091.63;5074751;28;20080;-80
2021/04/20 08:02:43;;;;;;;20.35;6.70;;;;;;;-143.98;100.00;68091.63;5053856;28;20052;-81
2021/04/20 08:05:30;;;;;;;14.20;6.55;;;;;;;-143.98;100.00;68091.63;5053358;28;20147;-81
2021/04/20 08:08:15;;;;;;;14.00;6.47;;;;;;;-143.98;100.00;68091.63;5050012;28;20056;-82
2021/04/20 08:11:04;;;;;;;12.23;6.78;;;;;;;-143.98;100.00;68091.63;5031968;28;20048;-82
2021/04/20 08:13:30;;;;;;;16.77;6.47;;;;;;;-143.98;100.00;68091.63;5050654;28;20060;-83
2021/04/20 08:16:23;;;;;;;17.52;7.38;;;;;;;-143.98;100.00;68091.63;5066887;28;20052;-83
2021/04/20 08:19:00;;;;;;;16.63;7.05;;;;;;;-143.98;100.00;68091.63;5034159;28;20057;-81
2021/04/20 08:21:31;;;;;;;12.13;6.63;;;;;;;-143.98;100.00;68091.63;5033606;28;20515;-82
2021/04/20 08:23:58;;;;;;;15.75;6.90;;;;;;;-143.98;100.00;68091.63;5033108;28;20404;-81
2021/04/20 08:26:28;;;;;;;13.98;5.90;;;;;;;-143.98;100.00;68091.63;5035582;28;20072;-82
2021/04/20 08:29:29;;;;;;;12.68;5.82;;;;;;;-143.98;100.00;68091.63;5033708;28;20139;-82
2021/04/20 08:32:07;;;;;;;12.18;5.18;;;;;;;-143.98;100.00;68091.63;5034727;28;20300;-81
2021/04/20 08:35:11;;;;;;;14.30;5.78;;;;;;;-143.98;100.00;68091.63;5033563;28;20053;-81
2021/04/20 08:38:07;;;;;;;10.65;5.03;;;;;;;-143.98;100.00;68091.63;5030675;28;20056;-83
2021/04/20 08:41:03;;;;;;;13.45;5.15;;;;;;;-143.98;100.00;68091.63;5036134;28;20057;-82
2021/04/20 08:44:00;;;;;;;12.00;5.20;;;;;;;-143.98;100.00;68091.63;5076276;28;20052;-82
2021/04/20 08:47:02;;;;;;;10.27;4.93;;;;;;;-143.98;100.00;68091.63;5044429;28;20182;-82
2021/04/20 08:49:49;;;;;;;8.90;4.90;;;;;;;-143.98;100.00;68091.63;5051028;28;20103;-82
2021/04/20 08:52:47;;;;;;;9.13;4.88;;;;;;;-143.98;100.00;68091.63;5030795;28;20118;-81
2021/04/20 08:55:31;;;;;;;11.68;5.55;;;;;;;-143.98;100.00;68091.63;5030319;28;20209;-82
2021/04/20 08:58:49;;;;;;;9.75;4.68;;;;;;;-143.98;100.00;68091.63;5048040;28;20123;-82
2021/04/20 09:01:30;;;;;;;11.95;5.00;;;;;;;-143.98;100.00;68091.63;5014142;28;20053;-82
2021/04/20 09:04:54;;;;;;;10.70;5.22;;;;;;;-143.98;100.00;68091.63;5031346;28;20120;-82
2021/04/20 09:07:56;;;;;;;12.02;5.18;;;;;;;-143.98;100.00;68091.63;5030630;28;20057;-81
2021/04/20 09:10:56;;;;;;;10.18;4.88;;;;;;;-143.98;100.00;68091.63;5020615;28;20054;-81
2021/04/20 09:13:29;;;;;;;9.85;5.18;;;;;;;-143.98;100.00;68091.63;5061368;28;20111;-81
2021/04/20 09:16:18;;;;;;;;;;;;;;;-143.98;100.00;68091.63;5048676;28;20052;-81
2021/04/20 09:18:58;;;;;;;8.35;4.50;;;;;;;-143.98;100.00;68091.63;5052036;28;20224;-81
2021/04/20 09:21:45;;;;;;;11.73;5.18;;;;;;;-143.98;100.00;68091.63;5041048;28;20116;-82
2021/04/20 09:24:19;;;;;;;10.75;4.88;;;;;;;-143.98;100.00;68091.63;5051609;28;20119;-81
2021/04/20 09:27:01;;;;;;;11.27;5.28;;;;;;;-143.98;100.00;68091.63;5054482;28;20052;-81
2021/04/20 09:29:44;;;;;;;9.02;4.75;;;;;;;-143.98;100.00;68091.63;5037205;28;20118;-81
2021/04/20 09:32:21;;;;;;;8.80;4.65;;;;;;;-143.98;100.00;68091.63;5035100;28;20452;-81
2021/04/20 09:34:54;;;;;;;12.88;5.00;;;;;;;-143.98;100.00;68091.63;5034996;28;20112;-80
2021/04/20 09:38:00;;;;;;;9.10;4.50;;;;;;;-143.98;100.00;68091.63;5016170;28;20458;-80
2021/04/20 09:57:07;;;;;;;12.40;4.65;;;;;;;-143.98;100.00;68091.63;5712237;22;20283;-81
2021/04/20 10:00:06;;;;;;;7.40;4.07;;;;;;;-143.98;100.00;68091.63;5096560;28;20055;-82
2021/04/20 10:02:37;;;;;;;10.57;5.28;;;;;;;-143.98;100.00;68091.63;5070315;28;20396;-81
2021/04/20 10:05:10;;;;;;;11.02;4.50;;;;;;;-143.98;100.00;68091.63;5072281;28;20292;-82
2021/04/20 10:07:56;;;;;;;11.45;4.32;;;;;;;-143.98;100.00;68091.63;5111352;28;20055;-85
2021/04/20 10:10:50;;;;;;;10.02;4.57;;;;;;;-143.98;100.00;68091.63;5079693;28;20131;-83
2021/04/20 10:13:35;;;;;;;9.57;4.15;;;;;;;-143.98;100.00;68091.63;5078598;28;20052;-83
2021/04/20 10:16:10;;;;;;;8.82;4.57;;;;;;;-143.98;100.00;68091.63;5071117;28;20105;-84
2021/04/20 10:18:52;;;;;;;7.43;4.50;;;;;;;-143.98;100.00;68091.63;5125510;22;20083;-82
2021/04/20 10:21:26;;;;;;;7.80;4.00;;;;;;;-143.98;100.00;68091.63;5054629;28;20086;-82
2021/04/20 10:24:22;;;;;;;10.57;4.72;;;;;;;-143.98;100.00;68091.63;5051020;28;20468;-81
2021/04/20 10:26:54;;;;;;;7.65;3.85;;;;;;;-143.98;100.00;68091.63;5033289;28;20063;-80
2021/04/20 10:36:52;;;;;;;6.70;4.22;;;;;;;-143.98;100.00;68091.63;5067174;28;20100;-82
2021/04/20 10:39:25;;;;;;;8.75;3.97;;;;;;;-143.98;100.00;68091.63;5039168;28;20260;-81
2021/04/20 10:41:54;;;;;;;7.90;4.10;;;;;;;-143.98;100.00;68091.63;5051214;28;20061;-82
2021/04/20 10:44:23;;;;;;;8.80;3.90;;;;;;;-143.98;100.00;68091.63;5023436;28;20314;-82
2021/04/20 10:46:55;;;;;;;8.07;4.07;;;;;;;-143.98;100.00;68091.63;5017573;28;20409;-81
2021/04/20 10:49:26;;;;;;;7.97;3.78;;;;;;;-143.98;100.00;68091.63;5051260;28;20057;-81
2021/04/20 10:51:57;;;;;;;8.60;3.95;;;;;;;-143.98;100.00;68091.63;5041914;28;20228;-83
2021/04/20 10:54:29;;;;;;;4.72;3.55;;;;;;;-143.98;100.00;68091.63;5021938;28;20361;-81
2021/04/20 10:56:56;;;;;;;10.27;4.47;;;;;;;-143.98;100.00;68091.63;5034015;28;20312;-82
2021/04/20 10:59:32;;;;;;;10.13;4.35;;;;;;;-143.98;100.00;68091.63;5055547;28;20096;-81
2021/04/20 11:02:04;;;;;;;5.25;3.85;;;;;;;-143.98;100.00;68091.63;5055578;28;20282;-85
2021/04/20 11:04:34;;;;;;;7.20;3.72;;;;;;;-143.98;100.00;68091.63;5045119;28;20072;-84
2021/04/20 11:07:21;;;;;;;11.80;3.85;;;;;;;-143.98;100.00;68091.63;5059351;28;20511;-81
2021/04/20 11:10:01;;;;;;;10.15;3.97;;;;;;;-143.98;100.00;68091.63;5048133;28;20056;-82
2021/04/20 11:12:29;;;;;;;9.13;3.95;;;;;;;-143.98;100.00;68091.63;5037018;28;20256;-83
2021/04/20 11:14:56;;;;;;;6.80;4.03;;;;;;;-143.98;100.00;68091.63;5062491;28;20052;-82
2021/04/20 11:17:27;;;;;;;7.82;3.67;;;;;;;-143.98;100.00;68091.63;5042157;28;20171;-82
2021/04/20 11:20:10;;;;;;;14.20;4.05;;;;;;;-143.98;100.00;68091.63;5051511;28;20097;-83
2021/04/20 11:22:46;;;;;;;11.85;3.78;;;;;;;-143.98;100.00;68091.63;5033835;28;20110;-82
2021/04/20 11:25:34;;;;;;;8.57;3.95;;;;;;;-143.98;100.00;68091.63;5055153;28;20432;-81
2021/04/20 11:28:09;;;;;;;7.60;3.40;;;;;;;-143.98;100.00;68091.63;5053157;28;20053;-80
2021/04/20 11:30:38;;;;;;;6.25;3.50;;;;;;;-143.98;100.00;68091.63;5050820;28;20147;-82
2021/04/20 11:33:12;;;;;;;6.47;4.03;;;;;;;-143.98;100.00;68091.63;5031880;28;20049;-82
2021/04/20 11:35:43;;;;;;;8.02;3.97;;;;;;;-143.98;100.00;68091.63;5033953;28;20059;-82
2021/04/20 11:38:22;;;;;;;8.07;3.35;;;;;;;-143.98;100.00;68091.63;5033292;28;20116;-81
2021/04/20 11:41:04;;;;;;;9.25;3.10;;;;;;;-143.98;100.00;68091.63;5029953;28;20119;-81
2021/04/20 11:43:32;;;;;;;7.40;2.58;;;;;;;-143.98;100.00;68091.63;5013421;28;20081;-82
2021/04/20 11:46:01;;;;;;;4.90;3.03;;;;;;;-143.98;100.00;68091.63;5044897;28;20045;-82
2021/04/20 11:48:35;;;;;;;11.13;3.20;;;;;;;-143.98;100.00;68091.63;5029722;28;20065;-81
2021/04/20 11:51:06;;;;;;;11.63;3.92;;;;;;;-143.98;100.00;68091.63;5029612;28;20053;-83
2021/04/20 11:53:41;;;;;;;7.78;3.45;;;;;;;-143.98;100.00;68091.63;5028077;28;20053;-81
2021/04/20 11:56:11;;;;;;;9.85;3.78;;;;;;;-143.98;100.00;68091.63;5041741;28;20097;-82